Time;durP1;ratioP1;P1;durP2;ratioP2;P2;SDS_P1;SDS_P2;PMS_P1;PMS_P2;Temp;Humidity;BMP_temperature;BMP_pressure;BME280_temperature;BME280_humidity;BME280_pressure;Samples;Min_cycle;Max_cycle;Signal;HPM_P1;HPM_P2
2023/06/20 00:01:39;;;;;;;;;;;;;;;-140.72;0.00;52356.38;5074402;28;20417;-70
2023/06/20 00:04:04;;;;;;;;;;;;;;;-140.72;0.00;52354.34;5071372;28;19923;-70
2023/06/20 00:06:29;;;;;;;;;;;;;;;-140.72;0.00;52352.31;5061646;28;19928;-70
2023/06/20 00:08:54;;;;;;;;;;;;;;;-140.72;0.00;52372.59;5073929;28;20005;-69
2023/06/20 00:11:20;;;;;;;;;;;;;;;-140.72;0.00;52362.44;5084720;28;19927;-69
2023/06/20 00:13:45;;;;;;;;;;;;;;;-140.72;0.00;52360.44;5073501;28;19924;-70
2023/06/20 00:16:10;;;;;;;;;;;;;;;-140.72;0.00;52368.53;5075799;28;19996;-70
2023/06/20 00:18:35;;;;;;;;;;;;;;;-140.72;0.00;52368.53;5069532;28;20471;-69
2023/06/20 00:21:01;;;;;;;;;;;;;;;-140.72;0.00;52350.28;5075791;28;20293;-69
2023/06/20 00:23:29;;;;;;;;;;;;;;;-140.72;0.00;52390.84;5075708;28;20011;-70
2023/06/20 00:25:55;;;;;;;;;;;;;;;-140.72;0.00;52313.75;5077117;28;19920;-70
2023/06/20 00:28:20;;;;;;;;;;;;;;;-140.72;0.00;52368.53;5082820;28;20004;-69
2023/06/20 00:30:45;;;;;;;;;;;;;;;-140.72;0.00;52354.34;5087971;28;20387;-69
2023/06/20 00:33:10;;;;;;;;;;;;;;;-140.72;0.00;52366.50;5075368;28;19985;-70
2023/06/20 00:35:36;;;;;;;;;;;;;;;-140.72;0.00;52356.38;5077077;28;20165;-69
2023/06/20 00:38:01;;;;;;;;;;;;;;;-140.72;0.00;52362.44;5080715;28;19956;-68
2023/06/20 00:40:27;;;;;;;;;;;;;;;-140.72;0.00;52368.53;5079054;28;20340;-71
2023/06/20 00:42:52;;;;;;;;;;;;;;;-140.72;0.00;52350.28;5076707;28;20304;-69
2023/06/20 00:45:28;;;;;;;;;;;;;;;-140.72;0.00;52350.28;5073307;28;19996;-69
2023/06/20 00:47:53;;;;;;;;;;;;;;;-140.72;0.00;52325.94;5092577;28;20337;-69
2023/06/20 00:50:18;;;;;;;;;;;;;;;-140.72;0.00;52348.25;5072914;28;20011;-69
2023/06/20 00:52:44;;;;;;;;;;;;;;;-140.72;0.00;52350.28;5071367;28;20024;-70
2023/06/20 00:55:10;;;;;;;;;;;;;;;-140.72;0.00;52366.50;5071150;28;19926;-69
2023/06/20 00:57:35;;;;;;;;;;;;;;;-140.72;0.00;52348.25;5074865;28;20361;-69
2023/06/20 01:00:01;;;;;;;;;;;;;;;-140.72;0.00;52338.09;5070090;28;19946;-69
2023/06/20 01:02:26;;;;;;;;;;;;;;;-140.72;0.00;52374.63;5073452;28;20020;-69
2023/06/20 01:04:51;;;;;;;;;;;;;;;-140.72;0.00;52386.81;5071346;28;19924;-69
2023/06/20 01:07:24;;;;;;;;;;;;;;;-140.72;0.00;52346.22;5071307;28;19990;-69
2023/06/20 01:10:18;;;;;;;;;;;;;;;-140.72;0.00;52342.16;5069568;28;19920;-70
2023/06/20 01:12:54;;;;;;;;;;;;;;;-140.72;0.00;52370.56;5044898;28;19985;-70
2023/06/20 01:15:26;;;;;;;;;;;;;;;-140.72;0.00;52364.47;5070814;28;19993;-70
2023/06/20 01:17:58;;;;;;;;;;;;;;;-140.72;0.00;52360.44;5082257;28;19922;-70
2023/06/20 01:20:26;;;;;;;;;;;;;;;-140.72;0.00;52366.50;5074759;28;19971;-70
2023/06/20 01:22:51;;;;;;;;;;;;;;;-140.72;0.00;52366.50;5072581;28;19927;-70
2023/06/20 01:25:31;;;;;;;;;;;;;;;-140.72;0.00;52354.34;5070805;28;19924;-70
2023/06/20 01:28:00;;;;;;;;;;;;;;;-140.72;0.00;52354.34;5071003;28;19923;-70
2023/06/20 01:30:32;;;;;;;;;;;;;;;-140.72;0.00;52388.84;5070273;28;19932;-70
2023/06/20 01:33:02;;;;;;;;;;;;;;;-140.72;0.00;52366.50;5073460;28;19928;-70
2023/06/20 01:35:28;;;;;;;;;;;;;;;-140.72;0.00;52332.03;5070521;28;19924;-70
2023/06/20 01:37:58;;;;;;;;;;;;;;;-140.72;0.00;52405.06;5068018;28;19921;-70
2023/06/20 01:40:24;;;;;;;;;;;;;;;-140.72;0.00;52398.97;5070360;28;20027;-70
2023/06/20 01:42:54;;;;;;;;;;;;;;;-140.72;1.31;52362.44;5074479;28;19925;-70
2023/06/20 01:45:20;;;;;;;;;;;;;;;-140.72;5.99;52350.28;5080297;28;20294;-70
2023/06/20 01:47:48;;;;;;;;;;;;;;;-140.72;13.56;52364.47;5075067;28;19924;-70
2023/06/20 01:50:14;;;;;;;;;;;;;;;-140.72;8.61;52394.91;5078377;28;19921;-70
2023/06/20 01:52:40;;;;;;;;;;;;;;;-140.72;15.82;52401.00;5089377;28;20324;-70
2023/06/20 01:55:07;;;;;;;;;;;;;;;-140.72;25.86;52411.16;5069260;28;19920;-70
2023/06/20 01:57:33;;;;;;;;;;;;;;;-140.72;34.48;52403.03;5079788;28;19920;-70
2023/06/20 01:59:59;;;;;;;;;;;;;;;-140.72;26.41;52411.16;5078839;28;20471;-70
2023/06/20 02:02:25;;;;;;;;;;;;;;;-140.72;21.41;52352.31;5066050;28;19948;-70
2023/06/20 02:04:56;;;;;;;;;;;;;;;-140.72;16.41;52380.72;5072077;28;19930;-70
2023/06/20 02:07:22;;;;;;;;;;;;;;;-140.72;7.56;52374.63;5077578;28;19977;-70
2023/06/20 02:09:47;;;;;;;;;;;;;;;-140.72;7.25;52407.09;5069616;28;20345;-70
2023/06/20 02:12:14;;;;;;;;;;;;;;;-140.72;7.41;52398.97;5082268;28;19931;-70
2023/06/20 02:14:39;;;;;;;;;;;;;;;-140.72;6.35;52354.34;5080432;28;19924;-70
2023/06/20 02:17:06;;;;;;;;;;;;;;;-140.72;3.47;52366.50;5086786;28;19921;-70
2023/06/20 02:19:32;;;;;;;;;;;;;;;-140.72;5.55;52382.75;5082549;28;20406;-70
2023/06/20 02:21:57;;;;;;;;;;;;;;;-140.72;0.19;52366.50;5086980;28;19966;-70
2023/06/20 02:24:23;;;;;;;;;;;;;;;-140.72;1.50;52356.38;5096274;28;19924;-70
2023/06/20 02:26:51;;;;;;;;;;;;;;;-140.72;0.00;52394.91;5066586;28;19925;-70
2023/06/20 02:29:16;;;;;;;;;;;;;;;-140.72;0.00;52346.22;5071120;28;19929;-70
2023/06/20 02:31:46;;;;;;;;;;;;;;;-140.72;0.00;52370.56;5069911;28;19920;-70
2023/06/20 02:34:27;;;;;;;;;;;;;;;-140.72;0.00;52378.69;5071412;28;19920;-70
2023/06/20 02:36:55;;;;;;;;;;;;;;;-140.72;0.00;52390.84;5080855;28;20359;-70
2023/06/20 02:39:23;;;;;;;;;;;;;;;-140.72;0.00;52398.97;5083980;28;19982;-70
2023/06/20 02:41:48;;;;;;;;;;;;;;;-140.72;0.00;52398.97;5078873;28;20328;-70
2023/06/20 02:44:14;;;;;;;;;;;;;;;-140.72;0.00;52378.69;5076709;28;19920;-70
2023/06/20 02:47:00;;;;;;;;;;;;;;;-140.72;0.00;52360.44;5085554;28;19966;-70
2023/06/20 02:49:43;;;;;;;;;;;;;;;-140.72;0.00;52350.28;5057901;28;19926;-70
2023/06/20 02:52:09;;;;;;;;;;;;;;;-140.72;0.00;52362.44;5084750;28;19958;-69
2023/06/20 02:54:52;;;;;;;;;;;;;;;-140.72;0.00;52372.59;5072947;28;20295;-69
2023/06/20 02:57:20;;;;;;;;;;;;;;;-140.72;0.00;52411.16;5071973;28;19996;-69
2023/06/20 02:59:48;;;;;;;;;;;;;;;-140.72;0.00;52407.09;5087036;28;20005;-69
2023/06/20 03:02:16;;;;;;;;;;;;;;;-140.72;0.00;52415.22;5072850;28;19926;-69
2023/06/20 03:04:44;;;;;;;;;;;;;;;-140.72;0.00;52378.69;5064622;28;19916;-70
2023/06/20 03:07:09;;;;;;;;;;;;;;;-140.72;0.00;52401.00;5069149;28;19916;-70
2023/06/20 03:09:35;;;;;;;;;;;;;;;-140.72;0.00;52366.50;5066653;28;19916;-70
2023/06/20 03:12:01;;;;;;;;;;;;;;;-140.72;0.00;52370.56;5069855;28;19921;-70
2023/06/20 03:14:26;;;;;;;;;;;;;;;-140.72;0.00;52396.94;5070058;28;19924;-69
2023/06/20 03:16:51;;;;;;;;;;;;;;;-140.72;0.28;52419.28;5073500;28;20360;-69
2023/06/20 03:19:16;;;;;;;;;;;;;;;-140.72;2.54;52421.28;5076839;28;19985;-70
2023/06/20 03:21:42;;;;;;;;;;;;;;;-140.72;3.45;52380.72;5079859;28;19991;-69
2023/06/20 03:24:08;;;;;;;;;;;;;;;-140.72;7.08;52415.22;5069582;28;19948;-69
2023/06/20 03:26:33;;;;;;;;;;;;;;;-140.72;7.24;52405.06;5074414;28;20012;-70
2023/06/20 03:28:59;;;;;;;;;;;;;;;-140.72;4.80;52411.16;5077939;28;20311;-69
2023/06/20 03:31:24;;;;;;;;;;;;;;;-140.72;0.00;52405.06;5070364;28;19921;-69
2023/06/20 03:33:49;;;;;;;;;;;;;;;-140.72;6.32;52398.97;5070972;28;20007;-69
2023/06/20 03:36:15;;;;;;;;;;;;;;;-140.72;2.99;52398.97;5070157;28;19920;-69
2023/06/20 03:38:42;;;;;;;;;;;;;;;-140.72;7.49;52374.63;5071209;28;19921;-69
2023/06/20 03:41:08;;;;;;;;;;;;;;;-140.72;2.96;52394.91;5072010;28;19940;-69
2023/06/20 03:43:34;;;;;;;;;;;;;;;-140.72;2.36;52409.13;5075518;28;19940;-69
2023/06/20 03:45:59;;;;;;;;;;;;;;;-140.72;4.18;52372.59;5082892;28;19927;-69
2023/06/20 03:48:24;;;;;;;;;;;;;;;-140.72;8.71;52382.75;5073114;28;19916;-69
2023/06/20 03:50:50;;;;;;;;;;;;;;;-140.72;5.82;52374.63;5082743;28;20003;-69
2023/06/20 03:53:15;;;;;;;;;;;;;;;-140.72;7.68;52368.53;5061423;28;19921;-70
2023/06/20 03:55:41;;;;;;;;;;;;;;;-140.72;2.50;52378.69;5074672;28;19924;-70
2023/06/20 03:58:06;;;;;;;;;;;;;;;-140.72;5.86;52376.66;5073538;28;19917;-70
2023/06/20 04:00:31;;;;;;;;;;;;;;;-140.72;8.03;52368.53;5070693;28;19930;-70
2023/06/20 04:02:57;;;;;;;;;;;;;;;-140.72;5.06;52374.63;5073674;28;19920;-70
2023/06/20 04:05:22;;;;;;;;;;;;;;;-140.72;1.96;52398.97;5072192;28;20254;-70
2023/06/20 04:07:47;;;;;;;;;;;;;;;-140.72;6.88;52413.19;5076246;28;20242;-70
2023/06/20 04:10:12;;;;;;;;;;;;;;;-140.72;14.20;52386.81;5079136;28;19988;-70
2023/06/20 04:12:41;;;;;;;;;;;;;;;-140.72;10.75;52417.25;5087834;28;19977;-70
2023/06/20 04:15:07;;;;;;;;;;;;;;;-140.72;8.00;52409.13;5079417;28;19916;-74
2023/06/20 04:17:32;;;;;;;;;;;;;;;-140.72;11.68;52388.84;5077501;28;19916;-70
2023/06/20 04:20:12;;;;;;;;;;;;;;;-140.72;8.05;52396.94;5073985;28;20307;-74
2023/06/20 04:22:42;;;;;;;;;;;;;;;-140.72;3.31;52368.53;5060422;28;19936;-78
2023/06/20 04:25:30;;;;;;;;;;;;;;;-140.72;5.91;52362.44;5052394;28;19924;-75
2023/06/20 04:27:55;;;;;;;;;;;;;;;-140.72;6.21;52413.19;5057716;28;19917;-76
2023/06/20 04:30:21;;;;;;;;;;;;;;;-140.72;2.77;52376.66;5048037;28;19917;-76
2023/06/20 04:32:46;;;;;;;;;;;;;;;-140.72;7.28;52396.94;5047877;28;19917;-75
2023/06/20 04:35:11;;;;;;;;;;;;;;;-140.72;2.50;52374.63;5052793;28;19921;-75
2023/06/20 04:37:38;;;;;;;;;;;;;;;-140.72;0.00;52384.78;5054181;28;19920;-75
2023/06/20 04:40:05;;;;;;;;;;;;;;;-140.72;0.00;52358.41;5043397;28;19917;-74
2023/06/20 04:42:31;;;;;;;;;;;;;;;-140.72;0.00;52405.06;5045402;28;20450;-75
2023/06/20 04:44:56;;;;;;;;;;;;;;;-140.72;0.00;52350.28;5052519;28;19959;-74
2023/06/20 04:50:30;;;;;;;;;;;;;;;-140.72;0.00;52362.44;5049693;28;19924;-69
2023/06/20 04:52:56;;;;;;;;;;;;;;;-140.72;0.00;52390.84;5052812;28;19927;-71
2023/06/20 04:55:21;;;;;;;;;;;;;;;-140.72;0.00;52350.28;5053086;28;20351;-69
2023/06/20 04:57:47;;;;;;;;;;;;;;;-140.72;1.17;52360.44;5053801;28;19940;-70
2023/06/20 05:00:13;;;;;;;;;;;;;;;-140.72;0.00;52362.44;5052726;28;19924;-70
2023/06/20 05:02:42;;;;;;;;;;;;;;;-140.72;0.00;52346.22;5053074;28;19925;-69
2023/06/20 05:05:08;;;;;;;;;;;;;;;-140.72;0.00;52358.41;5050063;28;20105;-69
2023/06/20 05:07:33;;;;;;;;;;;;;;;-140.72;0.00;52392.88;5046175;28;20000;-70
2023/06/20 05:09:58;;;;;;;;;;;;;;;-140.72;0.00;52334.03;5051006;28;19963;-70
2023/06/20 05:12:23;;;;;;;;;;;;;;;-140.72;0.00;52350.28;5055727;28;19916;-71
2023/06/20 05:14:48;;;;;;;;;;;;;;;-140.72;0.00;52382.75;5052445;28;20077;-69
2023/06/20 05:17:14;;;;;;;;;;;;;;;-140.72;0.00;52372.59;5052777;28;19962;-70
2023/06/20 05:19:39;;;;;;;;;;;;;;;-140.72;0.00;52372.59;5052492;28;19928;-70
2023/06/20 05:22:04;;;;;;;;;;;;;;;-140.72;0.00;52370.56;5069233;28;19931;-71
2023/06/20 05:24:29;;;;;;;;;;;;;;;-140.72;0.00;52327.97;5072588;28;19925;-70
2023/06/20 05:26:55;;;;;;;;;;;;;;;-140.72;0.00;52354.34;5073044;28;19939;-70
2023/06/20 05:29:20;;;;;;;;;;;;;;;-140.72;0.00;52334.03;5058736;28;19917;-70
2023/06/20 05:31:45;;;;;;;;;;;;;;;-140.72;0.00;52358.41;5072182;28;19920;-70
2023/06/20 05:34:10;;;;;;;;;;;;;;;-140.72;0.00;52346.22;5060448;28;19924;-70
2023/06/20 05:36:35;;;;;;;;;;;;;;;-140.72;0.00;52330.00;5075970;28;19966;-71
2023/06/20 05:39:01;;;;;;;;;;;;;;;-140.72;0.00;52356.38;5071934;28;19966;-68
2023/06/20 05:41:26;;;;;;;;;;;;;;;-140.72;0.00;52366.50;5064512;28;19944;-72
2023/06/20 05:43:51;;;;;;;;;;;;;;;-140.72;0.00;52354.34;5073725;28;20009;-72
2023/06/20 05:46:16;;;;;;;;;;;;;;;-140.72;0.00;52321.88;5072767;28;19966;-72
2023/06/20 05:48:43;;;;;;;;;;;;;;;-140.72;0.00;52313.75;5073904;28;19951;-72
2023/06/20 05:51:20;;;;;;;;;;;;;;;-140.72;0.00;52336.06;5075976;28;19921;-72
2023/06/20 05:53:47;;;;;;;;;;;;;;;-140.72;0.00;52291.44;5071245;28;19974;-71
2023/06/20 05:56:13;;;;;;;;;;;;;;;-140.72;0.00;52315.78;5073520;28;19944;-71
2023/06/20 05:58:39;;;;;;;;;;;;;;;-140.72;0.00;52291.44;5072355;28;19970;-72
2023/06/20 06:01:04;;;;;;;;;;;;;;;-140.72;0.00;52299.56;5072262;28;20318;-71
2023/06/20 06:03:32;;;;;;;;;;;;;;;-140.72;0.00;52299.56;5067709;28;20382;-73
2023/06/20 06:06:01;;;;;;;;;;;;;;;-140.72;0.00;52281.28;5067494;28;20343;-72
2023/06/20 06:08:54;;;;;;;;;;;;;;;-140.72;0.00;52307.66;5068210;28;19956;-72
2023/06/20 06:11:19;;;;;;;;;;;;;;;-140.72;0.00;52291.44;5072539;28;19927;-71
2023/06/20 06:13:45;;;;;;;;;;;;;;;-140.72;0.00;52295.50;5075736;28;20282;-70
2023/06/20 06:16:10;;;;;;;;;;;;;;;-140.72;0.00;52267.09;5071603;28;20019;-71
2023/06/20 06:18:35;;;;;;;;;;;;;;;-140.72;0.00;52279.25;5068777;28;19917;-70
2023/06/20 06:21:01;;;;;;;;;;;;;;;-140.72;0.00;52234.63;5068414;28;19921;-71
2023/06/20 06:23:26;;;;;;;;;;;;;;;-140.72;0.00;52301.59;5086696;28;19924;-71
2023/06/20 06:25:52;;;;;;;;;;;;;;;-140.72;0.00;52232.59;5084859;28;20366;-71
2023/06/20 06:28:17;;;;;;;;;;;;;;;-140.72;0.00;52240.72;5073225;28;20023;-70
2023/06/20 06:30:42;;;;;;;;;;;;;;;-140.72;0.00;52236.66;5080898;28;19917;-71
2023/06/20 06:33:08;;;;;;;;;;;;;;;-140.72;0.00;52287.38;5073193;28;19925;-70
2023/06/20 06:35:33;;;;;;;;;;;;;;;-140.72;0.00;52232.59;5077089;28;19916;-71
2023/06/20 06:37:59;;;;;;;;;;;;;;;-140.72;0.00;52228.53;5077913;28;20246;-70
2023/06/20 06:40:24;;;;;;;;;;;;;;;-140.72;0.00;52224.47;5080234;28;19920;-74
2023/06/20 06:42:50;;;;;;;;;;;;;;;-140.72;0.00;52277.22;5071754;28;19920;-73
2023/06/20 06:45:15;;;;;;;;;;;;;;;-140.72;0.00;52222.44;5058273;28;19917;-72
2023/06/20 06:47:40;;;;;;;;;;;;;;;-140.72;0.00;52238.69;5070422;28;20344;-73
2023/06/20 06:50:06;;;;;;;;;;;;;;;-140.72;0.00;52212.31;5068619;28;19974;-73
2023/06/20 06:52:34;;;;;;;;;;;;;;;-140.72;0.00;52224.47;5070400;28;20374;-72
2023/06/20 06:54:59;;;;;;;;;;;;;;;-140.72;0.00;52228.53;5071183;28;19920;-73
2023/06/20 06:57:24;;;;;;;;;;;;;;;-140.72;0.00;52261.00;5085840;28;19923;-73
2023/06/20 06:59:50;;;;;;;;;;;;;;;-140.72;0.00;52244.78;5071428;28;19973;-73
2023/06/20 07:02:15;;;;;;;;;;;;;;;-140.72;0.00;52220.41;5076594;28;20041;-73
2023/06/20 07:04:40;;;;;;;;;;;;;;;-140.72;0.00;52244.78;5071309;28;19986;-73
2023/06/20 07:07:05;;;;;;;;;;;;;;;-140.72;0.00;52297.53;5073388;28;19959;-73
2023/06/20 07:09:31;;;;;;;;;;;;;;;-140.72;0.00;52230.56;5074728;28;19924;-73
2023/06/20 07:11:56;;;;;;;;;;;;;;;-140.72;0.00;52198.09;5084913;28;19940;-73
2023/06/20 07:14:21;;;;;;;;;;;;;;;-140.72;0.00;52234.63;5071307;28;19928;-73
2023/06/20 07:16:47;;;;;;;;;;;;;;;-140.72;0.00;52236.66;5084121;28;19923;-73
2023/06/20 07:19:12;;;;;;;;;;;;;;;-140.72;0.00;52261.00;5075806;28;20324;-73
2023/06/20 07:21:37;;;;;;;;;;;;;;;-140.72;0.00;52230.56;5083440;28;19946;-73
2023/06/20 07:24:03;;;;;;;;;;;;;;;-140.72;0.00;52200.13;5071857;28;19921;-73
2023/06/20 07:26:28;;;;;;;;;;;;;;;-140.72;0.00;52210.28;5084989;28;19916;-73
2023/06/20 07:28:53;;;;;;;;;;;;;;;-140.72;0.00;52218.38;5069091;28;19963;-74
2023/06/20 07:31:19;;;;;;;;;;;;;;;-140.72;0.00;52214.34;5078636;28;19917;-73
2023/06/20 07:33:44;;;;;;;;;;;;;;;-140.72;0.00;52200.13;5067470;28;19916;-74
2023/06/20 07:36:09;;;;;;;;;;;;;;;-140.72;0.00;52192.00;5099522;28;19920;-73
2023/06/20 07:38:35;;;;;;;;;;;;;;;-140.72;0.00;52206.22;5088405;28;20398;-73
2023/06/20 07:41:00;;;;;;;;;;;;;;;-140.72;0.00;52192.00;5090909;28;19925;-73
2023/06/20 07:43:25;;;;;;;;;;;;;;;-140.72;0.00;52210.28;5097571;28;19968;-73
2023/06/20 07:45:50;;;;;;;;;;;;;;;-140.72;0.00;52206.22;5090704;28;20361;-73
2023/06/20 07:48:16;;;;;;;;;;;;;;;-140.72;0.00;52194.03;5076589;28;19917;-73
2023/06/20 07:50:41;;;;;;;;;;;;;;;-140.72;0.00;52165.63;5080450;28;19920;-73
2023/06/20 07:53:06;;;;;;;;;;;;;;;-140.72;0.00;52189.97;5087384;28;19917;-73
2023/06/20 07:55:31;;;;;;;;;;;;;;;-140.72;0.00;52185.94;5086492;28;20056;-74
2023/06/20 07:57:57;;;;;;;;;;;;;;;-140.72;0.00;52167.66;5068639;28;20010;-73
2023/06/20 08:00:24;;;;;;;;;;;;;;;-140.72;0.00;52171.72;5063146;28;20001;-73
2023/06/20 08:02:49;;;;;;;;;;;;;;;-140.72;0.00;52187.97;5073576;28;19986;-73
2023/06/20 08:05:15;;;;;;;;;;;;;;;-140.72;0.00;52192.00;5084641;28;19916;-74
2023/06/20 08:07:40;;;;;;;;;;;;;;;-140.72;0.00;52157.53;5080654;28;20101;-74
2023/06/20 08:10:07;;;;;;;;;;;;;;;-140.72;0.00;52157.53;5084837;28;19946;-73
2023/06/20 08:12:32;;;;;;;;;;;;;;;-140.72;0.00;52125.06;5079961;28;20019;-74
2023/06/20 08:14:57;;;;;;;;;;;;;;;-140.72;0.00;52110.84;5079404;28;20262;-74
2023/06/20 08:17:23;;;;;;;;;;;;;;;-140.72;0.00;52110.84;5073893;28;19936;-74
2023/06/20 08:19:48;;;;;;;;;;;;;;;-140.72;0.00;52118.97;5076698;28;19916;-74
2023/06/20 08:22:13;;;;;;;;;;;;;;;-140.72;0.00;52078.38;5071123;28;19933;-74
2023/06/20 08:24:39;;;;;;;;;;;;;;;-140.72;0.00;52114.91;5069696;28;19924;-74
2023/06/20 08:27:04;;;;;;;;;;;;;;;-140.72;0.00;52082.44;5077223;28;19956;-73
2023/06/20 08:29:30;;;;;;;;;;;;;;;-140.72;0.00;52096.66;5078367;28;20420;-74
2023/06/20 08:31:55;;;;;;;;;;;;;;;-140.72;0.00;52076.34;5077716;28;19921;-73
2023/06/20 08:34:20;;;;;;;;;;;;;;;-140.72;0.00;52080.41;5076492;28;20306;-74
2023/06/20 08:36:45;;;;;;;;;;;;;;;-140.72;0.00;52039.84;5071193;28;20401;-74
2023/06/20 08:39:11;;;;;;;;;;;;;;;-140.72;0.00;52041.88;5081394;28;19939;-74
2023/06/20 08:41:37;;;;;;;;;;;;;;;-140.72;0.00;52102.75;5065908;28;19924;-74
2023/06/20 08:44:02;;;;;;;;;;;;;;;-140.72;0.00;52043.91;5074050;28;19916;-74
2023/06/20 08:46:27;;;;;;;;;;;;;;;-140.72;0.00;52035.78;5081715;28;19989;-74
2023/06/20 08:48:53;;;;;;;;;;;;;;;-140.72;0.00;52045.94;5072417;28;19927;-74
2023/06/20 08:51:20;;;;;;;;;;;;;;;-140.72;0.00;52047.97;5072456;28;20353;-75
2023/06/20 08:53:46;;;;;;;;;;;;;;;-140.72;0.00;52062.16;5088737;28;20003;-73
2023/06/20 08:56:12;;;;;;;;;;;;;;;-140.72;0.00;52013.47;5080098;28;20008;-73
2023/06/20 08:58:38;;;;;;;;;;;;;;;-140.72;0.00;51989.13;5090630;28;20385;-74
2023/06/20 09:01:07;;;;;;;;;;;;;;;-140.72;0.00;52023.59;5079927;28;19947;-73
2023/06/20 09:03:32;;;;;;;;;;;;;;;-140.72;0.00;51958.69;5077579;28;20089;-74
2023/06/20 09:05:57;;;;;;;;;;;;;;;-140.72;0.00;51978.97;5080659;28;19999;-74
2023/06/20 09:08:23;;;;;;;;;;;;;;;-140.72;0.00;51966.81;5075683;28;19946;-73
2023/06/20 09:11:03;;;;;;;;;;;;;;;-140.72;0.00;51952.59;5079601;28;20320;-73
2023/06/20 09:13:29;;;;;;;;;;;;;;;-140.72;0.00;51962.75;5060117;28;19916;-74
2023/06/20 09:16:03;;;;;;;;;;;;;;;-140.72;0.00;51932.31;5068164;28;19927;-73
2023/06/20 09:18:29;;;;;;;;;;;;;;;-140.72;0.00;51853.19;5064560;28;19928;-74
2023/06/20 09:20:57;;;;;;;;;;;;;;;-140.72;0.00;51879.56;5075029;28;19920;-73
2023/06/20 09:23:30;;;;;;;;;;;;;;;-140.72;0.00;51863.31;5074205;28;19924;-73
2023/06/20 09:25:56;;;;;;;;;;;;;;;-140.72;0.00;51861.28;5073288;28;19935;-74
2023/06/20 09:28:31;;;;;;;;;;;;;;;-140.72;0.00;51855.22;5076068;28;20217;-71
2023/06/20 09:30:56;;;;;;;;;;;;;;;-140.72;0.00;51810.56;5079328;28;20016;-72
2023/06/20 09:33:24;;;;;;;;;;;;;;;-140.72;0.00;51792.31;5071865;28;19964;-71
2023/06/20 09:35:49;;;;;;;;;;;;;;;-140.72;0.00;51818.69;5073074;28;19928;-71
2023/06/20 09:38:14;;;;;;;;;;;;;;;-140.72;0.00;51818.69;5087948;28;19920;-71
2023/06/20 09:40:44;;;;;;;;;;;;;;;-140.72;0.00;51822.75;5075472;28;19935;-72
2023/06/20 09:43:09;;;;;;;;;;;;;;;-140.72;0.00;51836.94;5070677;28;19928;-72
2023/06/20 09:45:35;;;;;;;;;;;;;;;-140.72;0.00;51796.38;5077121;28;19916;-73
2023/06/20 09:48:00;;;;;;;;;;;;;;;-140.72;0.00;51816.66;5075405;28;20369;-73
2023/06/20 09:50:25;;;;;;;;;;;;;;;-140.72;0.00;51741.59;5078524;28;20019;-72
2023/06/20 09:52:51;;;;;;;;;;;;;;;-140.72;0.00;51763.91;5090291;28;19916;-72
2023/06/20 09:55:18;;;;;;;;;;;;;;;-140.72;0.00;51725.38;5081566;28;20358;-72
2023/06/20 09:57:49;;;;;;;;;;;;;;;-140.72;0.00;51757.81;5082410;28;19920;-72
2023/06/20 10:00:16;;;;;;;;;;;;;;;-140.72;0.00;51735.50;5076571;28;20341;-72
2023/06/20 10:02:43;;;;;;;;;;;;;;;-140.72;0.00;51749.72;5082756;28;19920;-72
2023/06/20 10:05:09;;;;;;;;;;;;;;;-140.72;0.00;51717.25;5077650;28;20005;-73
2023/06/20 10:07:36;;;;;;;;;;;;;;;-140.72;0.00;51650.31;5078069;28;19955;-72
2023/06/20 10:10:01;;;;;;;;;;;;;;;-140.72;0.00;51678.72;5079698;28;20352;-72
2023/06/20 10:12:27;;;;;;;;;;;;;;;-140.72;0.00;51664.50;5069816;28;20016;-73
2023/06/20 10:14:53;;;;;;;;;;;;;;;-140.72;0.00;51636.09;5071672;28;19942;-72
2023/06/20 10:17:29;;;;;;;;;;;;;;;-140.72;0.00;51634.06;5070672;28;20353;-73
2023/06/20 10:19:56;;;;;;;;;;;;;;;-140.72;0.00;51709.13;5082579;28;20381;-72
2023/06/20 10:22:37;;;;;;;;;;;;;;;-140.72;0.00;51636.09;5074072;28;19921;-72
2023/06/20 10:25:12;;;;;;;;;;;;;;;-140.72;0.00;51621.91;5081459;28;20380;-72
2023/06/20 10:27:41;;;;;;;;;;;;;;;-140.72;0.00;51569.16;5079811;28;19920;-73
2023/06/20 10:30:07;;;;;;;;;;;;;;;-140.72;0.00;51591.47;5084136;28;20392;-73
2023/06/20 10:32:32;;;;;;;;;;;;;;;-140.72;0.00;51615.81;5079369;28;20015;-73
2023/06/20 10:35:04;;;;;;;;;;;;;;;-140.72;0.00;51593.50;5077905;28;19917;-74
2023/06/20 10:37:29;;;;;;;;;;;;;;;-140.72;0.00;51664.50;5077782;28;19920;-73
2023/06/20 10:39:55;;;;;;;;;;;;;;;-140.72;0.00;51573.22;5075102;28;20451;-74
2023/06/20 10:42:39;;;;;;;;;;;;;;;-140.72;0.00;51563.06;5070927;28;19924;-74
2023/06/20 10:45:16;;;;;;;;;;;;;;;-140.72;0.00;51536.69;5057191;28;19928;-73
2023/06/20 10:47:42;;;;;;;;;;;;;;;-140.72;0.00;51536.69;5065547;28;19920;-73
2023/06/20 10:50:07;;;;;;;;;;;;;;;-140.72;0.00;51591.47;5074253;28;20433;-73
2023/06/20 10:52:32;;;;;;;;;;;;;;;-140.72;0.00;51636.09;5063970;28;19916;-73
2023/06/20 10:54:59;;;;;;;;;;;;;;;-140.72;0.00;51630.00;5075394;28;19940;-73
2023/06/20 10:57:24;;;;;;;;;;;;;;;-140.72;0.00;51632.03;5071646;28;20015;-74
2023/06/20 10:59:50;;;;;;;;;;;;;;;-140.72;0.00;51609.72;5071602;28;20357;-73
2023/06/20 11:02:15;;;;;;;;;;;;;;;-140.72;0.00;51550.91;5071057;28;19921;-73
2023/06/20 11:04:40;;;;;;;;;;;;;;;-140.72;0.00;51567.13;5071258;28;20328;-73
2023/06/20 11:07:06;;;;;;;;;;;;;;;-140.72;0.00;51644.22;5072994;28;20409;-74
2023/06/20 11:09:31;;;;;;;;;;;;;;;-140.72;0.00;51652.34;5072964;28;19916;-73
2023/06/20 11:11:56;;;;;;;;;;;;;;;-140.72;0.00;51640.16;5073013;28;20007;-73
2023/06/20 11:14:22;;;;;;;;;;;;;;;-140.72;0.00;51668.56;5080628;28;19921;-73
2023/06/20 11:16:48;;;;;;;;;;;;;;;-140.72;0.00;51632.03;5083789;28;19928;-73
2023/06/20 11:19:14;;;;;;;;;;;;;;;-140.72;0.00;51654.34;5072989;28;20007;-73
2023/06/20 11:21:40;;;;;;;;;;;;;;;-140.72;0.00;51692.91;5082759;28;20397;-79
2023/06/20 11:24:05;;;;;;;;;;;;;;;-140.72;0.00;51725.38;5086529;28;19917;-79
2023/06/20 11:26:31;;;;;;;;;;;;;;;-140.72;0.00;51717.25;5085926;28;19942;-76
2023/06/20 11:28:59;;;;;;;;;;;;;;;-140.72;0.00;51699.00;5077189;28;19916;-79
2023/06/20 11:31:24;;;;;;;;;;;;;;;-140.72;0.00;51810.56;5086793;28;19916;-77
2023/06/20 11:34:00;;;;;;;;;;;;;;;-140.72;0.00;51836.94;5079168;28;19924;-78
2023/06/20 11:36:26;;;;;;;;;;;;;;;-140.72;0.00;51836.94;5079992;28;19921;-77
2023/06/20 11:38:53;;;;;;;;;;;;;;;-140.72;0.00;51873.47;5087634;28;19917;-80
2023/06/20 11:41:28;;;;;;;;;;;;;;;-140.72;0.00;51847.09;5066764;28;19959;-76
2023/06/20 11:43:54;;;;;;;;;;;;;;;-140.72;0.00;51887.66;5078549;28;19935;-80
2023/06/20 11:46:19;;;;;;;;;;;;;;;-140.72;0.00;51836.94;5076445;28;19916;-80
2023/06/20 11:48:49;;;;;;;;;;;;;;;-140.72;0.00;51776.09;5080308;28;19930;-80
2023/06/20 11:51:14;;;;;;;;;;;;;;;-140.72;0.00;51747.69;5097751;28;19908;-78
2023/06/20 11:53:40;;;;;;;;;;;;;;;-140.72;0.00;51686.81;5088170;28;19923;-78
2023/06/20 11:56:08;;;;;;;;;;;;;;;-140.72;0.00;51625.97;5074717;28;20366;-79
2023/06/20 11:58:38;;;;;;;;;;;;;;;-140.72;0.00;51575.25;5070016;28;19928;-79
2023/06/20 12:01:05;;;;;;;;;;;;;;;-140.72;0.00;51587.41;5076009;28;19923;-78
2023/06/20 12:03:31;;;;;;;;;;;;;;;-140.72;0.00;51542.78;5082459;28;19919;-80
2023/06/20 12:05:57;;;;;;;;;;;;;;;-140.72;0.00;51441.34;5096306;28;20300;-79
2023/06/20 12:08:23;;;;;;;;;;;;;;;-140.72;0.00;51380.50;5088415;28;19945;-79
2023/06/20 12:11:02;;;;;;;;;;;;;;;-140.72;0.00;51360.22;5075340;28;19966;-79
2023/06/20 12:13:27;;;;;;;;;;;;;;;-140.72;0.00;51542.78;5076719;28;19912;-79
2023/06/20 12:15:53;;;;;;;;;;;;;;;-140.72;0.00;51481.91;5089571;28;19927;-80
2023/06/20 12:18:18;;;;;;;;;;;;;;;-140.72;0.00;51520.47;5083307;28;20346;-78
2023/06/20 12:20:45;;;;;;;;;;;;;;;-140.72;0.00;51506.25;5069908;28;19921;-83
2023/06/20 12:23:10;;;;;;;;;;;;;;;-140.72;0.00;51518.44;5091453;28;19919;-78
2023/06/20 12:25:35;;;;;;;;;;;;;;;-140.72;0.00;51481.91;5090847;28;19930;-79
2023/06/20 12:28:01;;;;;;;;;;;;;;;-140.72;0.00;51542.78;5076534;28;20011;-78
2023/06/20 12:30:26;;;;;;;;;;;;;;;-140.72;0.00;51587.41;5084569;28;19920;-80
2023/06/20 12:32:52;;;;;;;;;;;;;;;-140.72;0.00;51623.94;5075763;28;19986;-80
2023/06/20 12:35:17;;;;;;;;;;;;;;;-140.72;0.00;51613.78;5082047;28;19947;-79
2023/06/20 12:37:42;;;;;;;;;;;;;;;-140.72;0.00;51692.91;5072265;28;19931;-80